Time;durP1;ratioP1;P1;durP2;ratioP2;P2;SDS_P1;SDS_P2;PMS_P1;PMS_P2;Temp;Humidity;BMP_temperature;BMP_pressure;BME280_temperature;BME280_humidity;BME280_pressure;Samples;Min_cycle;Max_cycle;Signal;HPM_P1;HPM_P2
2021/12/19 00:09:27;;;;;;;38.22;14.43;;;2.10;84.90;;;;;;5053498;28;20036;-66
2021/12/19 00:11:53;;;;;;;40.72;15.50;;;2.00;84.70;;;;;;5054428;28;20079;-66
2021/12/19 00:14:20;;;;;;;35.30;14.48;;;2.00;84.90;;;;;;5052565;28;20036;-66
2021/12/19 00:16:46;;;;;;;38.30;15.40;;;2.00;85.10;;;;;;5054594;28;20123;-68
2021/12/19 00:19:12;;;;;;;37.45;15.57;;;2.00;85.10;;;;;;5054243;28;20040;-65
2021/12/19 00:21:40;;;;;;;43.53;17.75;;;2.00;85.10;;;;;;5055519;28;20496;-65
2021/12/19 00:24:07;;;;;;;45.33;16.92;;;2.00;85.30;;;;;;5056658;28;20119;-68
2021/12/19 00:26:32;;;;;;;40.50;16.70;;;1.90;85.10;;;;;;5055610;28;20087;-65
2021/12/19 00:29:00;;;;;;;42.15;16.38;;;1.90;85.10;;;;;;5057637;28;20032;-65
2021/12/19 00:31:26;;;;;;;41.28;16.58;;;2.00;85.70;;;;;;5057344;28;20032;-68
2021/12/19 00:33:53;;;;;;;39.50;16.23;;;1.90;84.60;;;;;;5056389;28;20060;-65
2021/12/19 00:36:19;;;;;;;38.70;15.43;;;1.90;84.60;;;;;;5056654;28;20493;-65
2021/12/19 00:38:45;;;;;;;35.90;15.15;;;1.80;84.80;;;;;;5056927;28;20064;-68
2021/12/19 00:41:11;;;;;;;42.15;16.60;;;1.80;85.10;;;;;;5055255;28;20033;-65
2021/12/19 00:43:53;;;;;;;36.67;15.00;;;1.80;85.30;;;;;;5055741;28;20131;-66
2021/12/19 00:46:19;;;;;;;41.22;16.70;;;1.80;85.30;;;;;;5058828;28;20060;-65
2021/12/19 00:48:50;;;;;;;41.05;17.27;;;1.80;85.30;;;;;;5056295;28;20044;-67
2021/12/19 00:51:22;;;;;;;40.90;16.38;;;1.80;85.30;;;;;;5056910;28;20082;-65
2021/12/19 00:53:48;;;;;;;41.25;16.38;;;1.80;85.30;;;;;;5058794;28;20025;-65
2021/12/19 00:56:15;;;;;;;42.08;15.70;;;1.80;85.40;;;;;;5057192;28;20524;-65
2021/12/19 00:58:41;;;;;;;36.58;15.15;;;1.80;85.40;;;;;;5056972;28;20064;-68
2021/12/19 01:01:08;;;;;;;41.90;15.82;;;1.80;85.40;;;;;;5056156;28;20033;-65
2021/12/19 01:03:34;;;;;;;36.38;15.18;;;1.80;85.60;;;;;;5057241;28;20037;-65
2021/12/19 01:06:00;;;;;;;42.05;16.48;;;1.90;85.60;;;;;;5056427;28;20450;-65
2021/12/19 01:08:26;;;;;;;42.42;16.23;;;1.90;85.30;;;;;;5055972;28;20119;-68
2021/12/19 01:10:52;;;;;;;45.95;16.88;;;1.90;85.20;;;;;;5054060;28;20148;-67
2021/12/19 01:13:18;;;;;;;50.67;16.73;;;1.90;85.20;;;;;;5054212;28;20083;-67
2021/12/19 01:15:45;;;;;;;43.10;15.75;;;1.90;85.30;;;;;;5056083;28;20063;-67
2021/12/19 01:18:11;;;;;;;48.80;17.90;;;1.90;85.30;;;;;;5056024;28;20068;-67
2021/12/19 01:20:39;;;;;;;37.70;15.10;;;1.90;85.30;;;;;;5056607;28;20079;-67
2021/12/19 01:23:05;;;;;;;44.42;17.33;;;1.90;85.40;;;;;;5057230;28;20689;-67
2021/12/19 01:25:31;;;;;;;44.42;16.75;;;1.90;85.40;;;;;;5055617;28;20071;-67
2021/12/19 01:27:57;;;;;;;48.97;18.00;;;1.90;85.50;;;;;;5055120;28;20037;-67
2021/12/19 01:30:24;;;;;;;47.50;18.88;;;2.00;85.40;;;;;;5055328;28;20036;-67
2021/12/19 01:32:50;;;;;;;42.33;16.95;;;2.00;85.10;;;;;;5056178;28;20043;-67
2021/12/19 01:35:17;;;;;;;43.53;17.55;;;1.90;84.90;;;;;;5055342;28;20603;-67
2021/12/19 01:37:44;;;;;;;44.75;16.88;;;1.90;84.90;;;;;;5057742;28;20075;-67
2021/12/19 01:40:11;;;;;;;44.28;16.30;;;1.80;85.10;;;;;;5059806;28;20086;-67
2021/12/19 01:42:39;;;;;;;39.45;15.63;;;1.80;85.30;;;;;;5059582;28;20039;-68
2021/12/19 01:45:08;;;;;;;36.45;14.70;;;1.80;85.30;;;;;;5059990;28;20039;-68
2021/12/19 01:47:34;;;;;;;35.15;14.00;;;1.80;85.20;;;;;;5058567;28;20087;-67
2021/12/19 01:50:00;;;;;;;38.42;14.68;;;1.80;85.10;;;;;;5057856;28;20044;-67
2021/12/19 01:52:28;;;;;;;39.13;15.13;;;1.80;84.90;;;;;;5056762;28;20044;-67
2021/12/19 01:54:56;;;;;;;37.55;15.27;;;1.70;84.80;;;;;;5059408;28;20102;-67
2021/12/19 01:57:24;;;;;;;32.83;14.55;;;1.70;84.80;;;;;;5057990;28;20029;-68
2021/12/19 01:59:50;;;;;;;37.67;15.90;;;1.70;84.90;;;;;;5059974;28;20035;-67
2021/12/19 02:02:16;;;;;;;36.75;14.93;;;1.70;85.10;;;;;;5060007;28;20047;-68
2021/12/19 02:04:43;;;;;;;37.05;14.00;;;1.70;85.10;;;;;;5059442;28;20033;-68
2021/12/19 02:07:11;;;;;;;32.67;13.75;;;1.60;84.90;;;;;;5057565;28;20571;-67
2021/12/19 02:09:37;;;;;;;33.67;13.82;;;1.60;85.00;;;;;;5058211;28;20041;-67
2021/12/19 02:12:03;;;;;;;32.50;14.23;;;1.60;85.10;;;;;;5055750;28;20087;-68
2021/12/19 02:14:29;;;;;;;38.90;15.25;;;1.60;85.10;;;;;;5059104;28;20411;-68
2021/12/19 02:16:55;;;;;;;40.35;15.63;;;1.60;84.90;;;;;;5058093;28;20064;-68
2021/12/19 02:19:22;;;;;;;39.38;15.68;;;1.60;85.40;;;;;;5057254;28;20056;-67
2021/12/19 02:21:49;;;;;;;40.95;17.00;;;1.60;85.00;;;;;;5058192;28;20024;-67
2021/12/19 02:24:15;;;;;;;37.58;15.93;;;1.60;84.90;;;;;;5058761;28;20036;-67
2021/12/19 02:26:43;;;;;;;35.35;14.52;;;1.60;85.00;;;;;;5057600;28;20496;-67
2021/12/19 02:29:10;;;;;;;39.72;15.63;;;1.50;85.00;;;;;;5059460;28;20037;-68
2021/12/19 02:31:37;;;;;;;38.85;15.00;;;1.60;85.20;;;;;;5056887;28;20518;-67
2021/12/19 02:36:49;;;;;;;40.40;16.00;;;1.50;84.90;;;;;;5057264;28;20029;-67
2021/12/19 02:39:45;;;;;;;36.80;15.88;;;1.50;84.70;;;;;;5058696;28;20061;-67
2021/12/19 02:50:24;;;;;;;35.95;15.40;;;1.40;85.10;;;;;;5059022;28;19919;-67
2021/12/19 02:52:51;;;;;;;36.50;15.00;;;1.40;85.10;;;;;;5058239;28;20039;-67
2021/12/19 02:55:18;;;;;;;38.42;16.10;;;1.30;85.30;;;;;;5058691;28;20952;-67
2021/12/19 02:57:45;;;;;;;33.95;14.15;;;1.30;85.30;;;;;;5057315;28;20047;-68
2021/12/19 03:00:15;;;;;;;35.85;14.93;;;1.30;85.30;;;;;;5058058;28;20186;-67
2021/12/19 03:02:41;;;;;;;34.08;14.27;;;1.30;85.40;;;;;;5058700;28;20033;-67
2021/12/19 03:05:08;;;;;;;36.92;14.63;;;1.30;85.40;;;;;;5059293;28;20071;-67
2021/12/19 03:07:39;;;;;;;35.60;14.98;;;1.30;85.40;;;;;;5055060;28;20033;-66
2021/12/19 03:18:00;;;;;;;34.40;14.02;;;1.40;85.60;;;;;;5058012;28;20446;-67
2021/12/19 03:20:28;;;;;;;35.65;14.02;;;1.40;85.20;;;;;;5056391;28;20071;-67
2021/12/19 03:22:54;;;;;;;33.65;15.00;;;1.40;85.10;;;;;;5056977;28;20065;-67
2021/12/19 03:25:19;;;;;;;35.53;15.32;;;1.40;85.20;;;;;;5059105;28;20539;-67
2021/12/19 03:27:45;;;;;;;34.72;14.63;;;1.50;85.10;;;;;;5058032;28;20109;-64
2021/12/19 03:30:11;;;;;;;33.30;14.05;;;1.50;84.90;;;;;;5057179;28;20037;-67
2021/12/19 03:32:37;;;;;;;33.30;13.43;;;1.50;84.70;;;;;;5056700;28;20029;-67
2021/12/19 03:35:05;;;;;;;34.90;14.75;;;1.50;84.40;;;;;;5057190;28;20036;-67
2021/12/19 03:37:31;;;;;;;31.17;13.48;;;1.40;84.00;;;;;;5057071;28;20051;-67
2021/12/19 03:40:07;;;;;;;32.60;14.27;;;1.40;84.30;;;;;;5057439;28;20032;-67
2021/12/19 03:42:34;;;;;;;33.85;14.30;;;1.40;84.70;;;;;;5058443;28;20649;-67
2021/12/19 03:45:00;;;;;;;35.22;13.98;;;1.30;84.70;;;;;;5058218;28;20431;-67
2021/12/19 03:47:25;;;;;;;33.38;14.23;;;1.30;85.60;;;;;;5056851;28;20032;-67
2021/12/19 03:49:51;;;;;;;32.95;14.35;;;1.30;84.70;;;;;;5058470;28;20033;-67
2021/12/19 03:52:17;;;;;;;35.38;14.25;;;1.30;84.60;;;;;;5056155;28;20495;-67
2021/12/19 03:54:42;;;;;;;33.63;14.70;;;1.30;84.70;;;;;;5056916;28;20041;-67
2021/12/19 03:57:08;;;;;;;29.23;12.63;;;1.30;84.90;;;;;;5056589;28;20495;-67
2021/12/19 03:59:34;;;;;;;33.63;14.13;;;1.30;85.10;;;;;;5056395;28;20063;-67
2021/12/19 04:02:00;;;;;;;36.15;14.82;;;1.30;85.30;;;;;;5055427;28;20040;-67
2021/12/19 04:04:25;;;;;;;35.22;14.20;;;1.20;85.20;;;;;;5057458;28;20037;-66
2021/12/19 04:06:51;;;;;;;33.83;14.13;;;1.30;85.30;;;;;;5056060;28;20036;-67
2021/12/19 04:09:17;;;;;;;32.05;13.55;;;1.30;85.10;;;;;;5055727;28;20086;-67
2021/12/19 04:11:42;;;;;;;32.70;13.38;;;1.30;85.10;;;;;;5055433;28;20098;-67
2021/12/19 04:14:08;;;;;;;33.85;14.45;;;1.30;85.00;;;;;;5057658;28;20068;-68
2021/12/19 04:16:34;;;;;;;35.05;13.95;;;1.40;85.10;;;;;;5056540;28;20040;-67
2021/12/19 04:18:59;;;;;;;34.53;15.10;;;1.40;85.10;;;;;;5054613;28;20466;-67
2021/12/19 04:21:25;;;;;;;36.38;14.55;;;1.40;85.10;;;;;;5056014;28;20039;-65
2021/12/19 04:23:51;;;;;;;33.50;15.13;;;1.40;84.90;;;;;;5056168;28;20032;-67
2021/12/19 04:26:16;;;;;;;38.20;15.88;;;1.40;85.00;;;;;;5056999;28;20043;-68
2021/12/19 04:28:42;;;;;;;35.83;15.35;;;1.40;85.00;;;;;;5055673;28;20097;-67
2021/12/19 04:31:08;;;;;;;39.58;15.00;;;1.40;84.90;;;;;;5057406;28;20028;-68
2021/12/19 04:33:36;;;;;;;38.85;15.48;;;1.40;84.80;;;;;;5055255;28;20498;-67
2021/12/19 04:36:05;;;;;;;35.08;14.95;;;1.40;84.70;;;;;;5057260;28;20488;-67
2021/12/19 05:15:24;;;;;;;34.00;14.68;;;1.10;84.90;;;;;;5060436;28;21086;-68
2021/12/19 05:17:50;;;;;;;34.85;15.05;;;1.20;85.00;;;;;;5059877;28;20161;-67
2021/12/19 05:20:21;;;;;;;35.55;14.77;;;1.10;85.00;;;;;;5059788;28;20047;-68
2021/12/19 05:22:49;;;;;;;35.33;14.07;;;1.20;84.90;;;;;;5058773;28;20044;-67
2021/12/19 05:25:19;;;;;;;42.58;17.60;;;1.10;84.70;;;;;;5059678;28;20125;-68
2021/12/19 05:27:47;;;;;;;57.33;25.23;;;1.10;84.70;;;;;;5059818;28;20091;-68
2021/12/19 05:30:14;;;;;;;53.03;26.33;;;1.10;84.70;;;;;;5059789;28;20037;-68
2021/12/19 05:32:45;;;;;;;33.10;15.05;;;1.10;84.90;;;;;;5058822;28;20095;-67
2021/12/19 05:35:13;;;;;;;36.55;16.48;;;1.10;85.00;;;;;;5058803;28;20035;-68
2021/12/19 05:45:52;;;;;;;31.77;14.30;;;1.10;85.00;;;;;;5059769;28;20044;-67
2021/12/19 05:48:18;;;;;;;31.52;13.55;;;1.10;84.90;;;;;;5059150;28;20484;-67
2021/12/19 05:50:43;;;;;;;37.13;15.23;;;1.10;84.80;;;;;;5057964;28;21373;-68
2021/12/19 05:53:13;;;;;;;31.67;14.05;;;1.10;84.70;;;;;;5058561;28;20082;-67
2021/12/19 05:55:40;;;;;;;31.27;13.93;;;1.10;85.40;;;;;;5059621;28;20561;-68
2021/12/19 05:58:06;;;;;;;32.33;13.77;;;1.10;84.60;;;;;;5059329;28;20029;-67
2021/12/19 06:00:33;;;;;;;30.90;13.82;;;1.00;84.50;;;;;;5058398;28;20504;-67
2021/12/19 06:03:01;;;;;;;28.77;13.50;;;1.00;84.60;;;;;;5058995;28;20028;-67
2021/12/19 06:05:27;;;;;;;33.38;14.73;;;1.00;84.70;;;;;;5059296;28;21270;-67
2021/12/19 06:07:52;;;;;;;29.40;13.07;;;1.00;84.80;;;;;;5056636;28;20511;-67
2021/12/19 06:10:19;;;;;;;37.00;15.68;;;1.00;84.80;;;;;;5059577;28;20119;-67
2021/12/19 06:12:45;;;;;;;33.13;14.40;;;1.00;84.70;;;;;;5053643;28;20031;-67
2021/12/19 06:15:11;;;;;;;34.78;14.73;;;1.00;84.90;;;;;;5058715;28;20041;-67
2021/12/19 06:17:42;;;;;;;32.55;14.77;;;1.00;85.10;;;;;;5059479;28;20036;-68
2021/12/19 06:20:09;;;;;;;32.65;14.63;;;1.00;85.10;;;;;;5058633;28;20063;-67
2021/12/19 06:22:35;;;;;;;30.27;13.73;;;1.00;85.00;;;;;;5057404;28;20116;-67
2021/12/19 06:25:02;;;;;;;33.13;15.43;;;1.00;84.90;;;;;;5058987;28;20105;-67
2021/12/19 06:27:27;;;;;;;30.70;14.15;;;1.00;85.00;;;;;;5057590;28;20492;-67
2021/12/19 06:29:53;;;;;;;33.45;14.98;;;1.00;85.10;;;;;;5059383;28;20051;-66
2021/12/19 06:32:19;;;;;;;31.60;14.55;;;1.00;85.10;;;;;;5058239;28;20078;-66
2021/12/19 06:34:44;;;;;;;32.35;14.27;;;1.00;85.10;;;;;;5063506;28;20132;-66
2021/12/19 06:37:11;;;;;;;28.80;12.70;;;1.00;85.10;;;;;;5058992;28;20043;-67
2021/12/19 06:39:38;;;;;;;25.95;11.82;;;1.10;85.10;;;;;;5057797;28;20047;-66
2021/12/19 06:42:06;;;;;;;26.67;12.00;;;1.10;84.90;;;;;;5059215;28;20084;-67
2021/12/19 06:44:32;;;;;;;26.90;12.85;;;1.00;84.70;;;;;;5058326;28;20041;-67
2021/12/19 06:46:59;;;;;;;28.30;13.23;;;1.00;84.60;;;;;;5056873;28;20032;-67
2021/12/19 06:49:24;;;;;;;22.55;10.70;;;1.00;85.40;;;;;;5058316;28;20037;-67
2021/12/19 06:51:50;;;;;;;27.38;11.73;;;1.00;84.60;;;;;;5057602;28;20440;-67
2021/12/19 06:54:16;;;;;;;27.58;12.32;;;0.90;84.60;;;;;;5057613;28;20033;-67
2021/12/19 06:56:42;;;;;;;29.25;13.00;;;0.90;84.60;;;;;;5056747;28;20041;-67
2021/12/19 06:59:07;;;;;;;26.65;11.32;;;0.80;85.40;;;;;;5057306;28;20511;-67
2021/12/19 07:01:35;;;;;;;34.42;15.90;;;0.80;84.70;;;;;;5057211;28;20182;-67
2021/12/19 07:04:01;;;;;;;35.53;15.80;;;0.80;84.90;;;;;;5056745;28;20025;-68
2021/12/19 07:06:26;;;;;;;28.75;13.32;;;0.70;85.00;;;;;;5057959;28;20070;-67
2021/12/19 07:08:52;;;;;;;32.58;14.35;;;0.80;85.10;;;;;;5057662;28;20057;-68
2021/12/19 07:11:18;;;;;;;31.83;14.65;;;0.80;85.10;;;;;;5055009;28;20045;-67
2021/12/19 07:13:43;;;;;;;29.15;13.10;;;0.70;85.00;;;;;;5058450;28;20098;-67
2021/12/19 07:16:09;;;;;;;29.38;13.45;;;0.70;85.10;;;;;;5058796;28;20029;-67
2021/12/19 07:18:36;;;;;;;31.55;13.60;;;0.70;85.10;;;;;;5057837;28;20111;-67
2021/12/19 07:21:03;;;;;;;27.80;12.77;;;0.70;85.30;;;;;;5058997;28;20037;-66
2021/12/19 07:23:30;;;;;;;35.05;15.27;;;0.70;85.30;;;;;;5056775;28;20530;-67
2021/12/19 07:25:56;;;;;;;28.77;13.35;;;0.70;85.40;;;;;;5046246;28;20403;-65
2021/12/19 07:28:22;;;;;;;30.27;14.00;;;0.70;86.30;;;;;;5047252;28;20029;-66
2021/12/19 07:30:47;;;;;;;29.80;14.07;;;0.80;85.60;;;;;;5049908;28;20051;-67
2021/12/19 07:33:13;;;;;;;29.85;13.57;;;0.80;85.50;;;;;;5053422;28;20047;-67
2021/12/19 07:35:42;;;;;;;31.95;13.75;;;0.80;85.50;;;;;;5052478;28;20039;-67
2021/12/19 07:38:09;;;;;;;28.48;13.15;;;0.80;85.60;;;;;;5052179;28;20041;-67
2021/12/19 07:40:36;;;;;;;26.70;13.27;;;0.80;85.40;;;;;;5051201;28;20515;-67
2021/12/19 07:43:11;;;;;;;26.55;12.77;;;0.80;85.40;;;;;;5050740;28;20120;-67
2021/12/19 07:45:37;;;;;;;26.05;12.85;;;0.90;85.50;;;;;;5054008;28;20408;-67
2021/12/19 07:48:04;;;;;;;26.88;12.90;;;0.90;86.30;;;;;;5053230;28;20072;-67
2021/12/19 07:50:31;;;;;;;23.95;11.40;;;0.90;85.50;;;;;;5056986;28;20036;-67
2021/12/19 07:52:57;;;;;;;27.30;14.50;;;1.00;85.50;;;;;;5054109;28;20044;-66
2021/12/19 07:55:24;;;;;;;27.85;13.93;;;1.00;85.50;;;;;;5052541;28;20082;-67
2021/12/19 07:57:50;;;;;;;30.70;16.35;;;1.00;85.40;;;;;;5052228;28;20039;-66
2021/12/19 08:00:19;;;;;;;26.80;14.27;;;1.10;85.30;;;;;;5054216;28;20059;-68
2021/12/19 08:02:45;;;;;;;26.40;13.05;;;1.10;85.30;;;;;;5049197;28;20496;-66
2021/12/19 08:05:12;;;;;;;23.25;11.38;;;1.10;85.10;;;;;;5053893;28;20098;-66
2021/12/19 08:07:39;;;;;;;25.77;11.75;;;1.10;84.90;;;;;;5051193;28;20036;-66
2021/12/19 08:12:38;;;;;;;21.25;11.35;;;1.10;84.70;;;;;;5050482;28;20037;-66
2021/12/19 08:15:04;;;;;;;22.75;12.18;;;1.10;84.50;;;;;;5052845;28;20036;-67
2021/12/19 08:17:31;;;;;;;22.10;11.07;;;1.20;84.70;;;;;;5052962;28;20111;-67
2021/12/19 08:19:57;;;;;;;24.42;12.23;;;1.10;84.80;;;;;;5053233;28;20110;-66
2021/12/19 08:22:23;;;;;;;25.98;12.13;;;1.20;84.80;;;;;;5053619;28;20028;-66
2021/12/19 08:24:50;;;;;;;25.25;11.77;;;1.10;84.70;;;;;;5052578;28;20047;-66
2021/12/19 08:27:16;;;;;;;22.83;11.60;;;1.10;84.60;;;;;;5051805;28;20035;-66
2021/12/19 08:29:42;;;;;;;24.35;11.65;;;1.20;84.70;;;;;;5053929;28;20679;-67
2021/12/19 08:32:08;;;;;;;24.38;12.23;;;1.10;84.60;;;;;;5053497;28;20043;-67
2021/12/19 08:34:34;;;;;;;20.30;11.15;;;1.10;84.60;;;;;;5054354;28;20865;-67
2021/12/19 08:37:02;;;;;;;24.23;12.13;;;1.20;84.60;;;;;;5049595;28;20131;-67
2021/12/19 08:39:28;;;;;;;22.75;11.10;;;1.10;84.40;;;;;;5053618;28;20037;-67
2021/12/19 08:41:54;;;;;;;21.73;11.02;;;1.10;84.60;;;;;;5055914;28;20728;-66
2021/12/19 08:44:21;;;;;;;23.25;11.80;;;1.10;84.70;;;;;;5051211;28;20044;-66
2021/12/19 08:46:47;;;;;;;24.23;11.32;;;1.10;84.80;;;;;;5051446;28;20024;-66
2021/12/19 08:49:13;;;;;;;23.48;11.57;;;1.10;84.90;;;;;;5053068;28;20036;-67
2021/12/19 08:51:39;;;;;;;21.13;11.25;;;1.20;85.00;;;;;;5052211;28;20120;-66
2021/12/19 08:54:06;;;;;;;23.60;11.15;;;1.20;85.10;;;;;;5053951;28;20081;-68
2021/12/19 08:56:31;;;;;;;24.10;11.90;;;1.20;85.10;;;;;;5051178;28;20028;-67
2021/12/19 08:58:58;;;;;;;22.17;11.32;;;1.20;85.00;;;;;;5055780;28;20496;-67
2021/12/19 09:01:24;;;;;;;26.88;13.73;;;1.20;85.10;;;;;;5055336;28;20047;-67
2021/12/19 09:03:50;;;;;;;21.17;11.02;;;1.30;85.20;;;;;;5054190;28;20029;-68
2021/12/19 09:06:16;;;;;;;22.15;11.10;;;1.30;85.00;;;;;;5051677;28;20461;-67
2021/12/19 09:08:41;;;;;;;22.58;12.57;;;1.30;84.90;;;;;;5052737;28;20039;-67
2021/12/19 09:11:07;;;;;;;23.85;12.15;;;1.30;84.90;;;;;;5053365;28;20041;-66
2021/12/19 09:13:33;;;;;;;24.90;12.73;;;1.30;84.90;;;;;;5054485;28;20044;-66
2021/12/19 09:16:00;;;;;;;25.08;12.57;;;1.40;84.70;;;;;;5049308;28;20037;-66
2021/12/19 09:18:28;;;;;;;25.15;11.60;;;1.40;84.70;;;;;;5057010;28;20099;-65
2021/12/19 09:20:54;;;;;;;23.05;11.20;;;1.40;84.60;;;;;;5050767;28;20530;-67
2021/12/19 09:23:20;;;;;;;23.58;11.40;;;1.40;84.60;;;;;;5053115;28;20512;-68
2021/12/19 09:25:46;;;;;;;22.85;11.13;;;1.40;84.70;;;;;;5052261;28;20033;-67
2021/12/19 09:28:12;;;;;;;20.58;10.60;;;1.30;84.70;;;;;;5052021;28;20037;-67
2021/12/19 09:30:37;;;;;;;22.65;11.18;;;1.30;84.70;;;;;;5050387;28;20036;-65
2021/12/19 09:33:04;;;;;;;23.08;11.43;;;1.30;84.90;;;;;;5052488;28;20094;-65
2021/12/19 09:35:30;;;;;;;22.38;11.50;;;1.30;84.90;;;;;;5054696;28;20117;-67
2021/12/19 09:37:56;;;;;;;26.95;12.70;;;1.30;84.90;;;;;;5046912;28;20036;-66
2021/12/19 09:40:31;;;;;;;24.23;12.38;;;1.30;85.00;;;;;;5053073;28;20044;-67
2021/12/19 09:43:01;;;;;;;26.88;13.10;;;1.30;84.90;;;;;;5052002;28;20032;-66
2021/12/19 09:45:27;;;;;;;22.95;11.40;;;1.30;84.90;;;;;;5053361;28;20044;-67
2021/12/19 09:47:53;;;;;;;20.05;10.93;;;1.30;84.90;;;;;;5050484;28;20043;-68
2021/12/19 09:50:19;;;;;;;22.80;10.48;;;1.30;85.80;;;;;;5049523;28;20041;-67
2021/12/19 09:52:46;;;;;;;23.42;12.70;;;1.20;84.80;;;;;;5052265;28;20387;-67
2021/12/19 09:55:17;;;;;;;21.45;11.35;;;1.20;84.90;;;;;;5050672;28;20044;-65
2021/12/19 09:57:43;;;;;;;24.27;12.77;;;1.20;85.10;;;;;;5048694;28;20091;-67
2021/12/19 10:00:09;;;;;;;28.10;14.32;;;1.20;85.20;;;;;;5054734;28;20049;-67
2021/12/19 10:02:35;;;;;;;25.13;12.98;;;1.20;85.20;;;;;;5059035;28;20527;-66
2021/12/19 10:05:14;;;;;;;23.48;12.10;;;1.20;85.30;;;;;;5060268;28;21116;-67
2021/12/19 10:07:57;;;;;;;23.52;11.77;;;1.20;85.40;;;;;;5054078;28;20121;-67
2021/12/19 10:10:42;;;;;;;25.58;13.05;;;1.30;85.60;;;;;;5058946;28;20141;-67
2021/12/19 10:13:08;;;;;;;27.40;14.13;;;1.40;85.80;;;;;;5057452;28;20507;-67
2021/12/19 10:15:40;;;;;;;23.52;13.57;;;1.40;85.80;;;;;;5059037;28;20118;-67
2021/12/19 10:18:16;;;;;;;21.55;12.10;;;1.40;85.80;;;;;;5058046;28;20029;-67
2021/12/19 10:20:58;;;;;;;27.27;14.85;;;1.50;85.80;;;;;;5058084;28;20040;-67
2021/12/19 10:23:30;;;;;;;23.38;13.05;;;1.60;85.90;;;;;;5058160;28;20031;-66
2021/12/19 10:25:57;;;;;;;19.30;10.18;;;1.60;85.70;;;;;;5055570;28;20542;-66
2021/12/19 10:28:22;;;;;;;17.70;9.70;;;1.70;85.50;;;;;;5057682;28;20033;-67
2021/12/19 10:30:49;;;;;;;23.65;11.95;;;1.70;85.30;;;;;;5057982;28;20482;-67
2021/12/19 10:33:16;;;;;;;20.65;11.00;;;1.80;85.30;;;;;;5059166;28;20114;-66
2021/12/19 10:35:43;;;;;;;22.80;10.77;;;1.80;85.00;;;;;;5058471;28;20051;-67
2021/12/19 10:38:22;;;;;;;21.83;10.88;;;1.80;84.90;;;;;;5057900;28;20044;-67
2021/12/19 10:41:04;;;;;;;22.50;11.40;;;1.90;84.60;;;;;;5056345;28;20111;-67
2021/12/19 10:43:32;;;;;;;20.67;11.07;;;1.90;84.70;;;;;;5054740;28;20517;-68
2021/12/19 10:46:03;;;;;;;21.25;11.00;;;1.90;85.70;;;;;;5058852;28;20052;-67
2021/12/19 10:48:34;;;;;;;22.92;10.38;;;2.00;84.70;;;;;;5058171;28;20025;-67
2021/12/19 10:51:19;;;;;;;23.33;11.80;;;2.00;84.60;;;;;;5059381;28;20039;-67
2021/12/19 10:53:56;;;;;;;33.22;18.70;;;2.00;84.40;;;;;;5057124;28;20032;-68
2021/12/19 10:56:29;;;;;;;23.48;12.05;;;2.00;84.40;;;;;;5059362;28;20164;-67
2021/12/19 10:59:06;;;;;;;24.80;12.68;;;2.00;84.40;;;;;;5057517;28;20033;-67
2021/12/19 11:01:36;;;;;;;28.30;13.27;;;2.10;84.30;;;;;;5058958;28;20124;-67
2021/12/19 11:04:04;;;;;;;32.00;16.60;;;2.10;84.40;;;;;;5057170;28;20108;-66
2021/12/19 11:06:40;;;;;;;25.50;13.60;;;2.10;84.40;;;;;;5056554;28;20029;-68
2021/12/19 11:09:24;;;;;;;24.63;13.48;;;2.10;84.20;;;;;;5057523;28;20033;-68
2021/12/19 11:12:05;;;;;;;24.98;11.55;;;2.10;84.30;;;;;;5054315;28;20406;-67
2021/12/19 11:14:43;;;;;;;23.42;11.63;;;2.10;84.20;;;;;;5057628;28;20512;-67
2021/12/19 11:17:20;;;;;;;26.52;11.98;;;2.10;84.20;;;;;;5058944;28;20653;-67
2021/12/19 11:19:47;;;;;;;24.27;11.93;;;2.10;84.20;;;;;;5057319;28;20471;-67
2021/12/19 11:22:23;;;;;;;22.00;11.07;;;2.10;84.30;;;;;;5059316;28;20395;-68
2021/12/19 11:24:48;;;;;;;25.88;12.55;;;2.10;84.40;;;;;;5059454;28;20106;-67
2021/12/19 11:27:14;;;;;;;23.58;12.43;;;2.10;84.60;;;;;;5059478;28;20510;-67
2021/12/19 11:29:42;;;;;;;22.58;12.45;;;2.10;84.70;;;;;;5057768;28;20035;-67
2021/12/19 11:32:09;;;;;;;22.70;11.77;;;2.10;85.60;;;;;;5059580;28;20103;-67
2021/12/19 11:34:58;;;;;;;22.27;11.68;;;2.10;84.70;;;;;;5059038;28;20455;-68
2021/12/19 11:37:29;;;;;;;24.65;13.20;;;2.20;84.60;;;;;;5058349;28;20436;-67
2021/12/19 11:39:56;;;;;;;27.77;12.70;;;2.20;84.70;;;;;;5057537;28;20035;-66
2021/12/19 11:42:28;;;;;;;30.45;15.40;;;2.20;84.70;;;;;;5058602;28;20053;-68
2021/12/19 11:48:05;;;;;;;26.00;13.45;;;2.30;84.80;;;;;;5058230;28;20400;-67
2021/12/19 11:50:36;;;;;;;26.90;13.10;;;2.30;84.70;;;;;;5057053;28;20067;-68
2021/12/19 11:53:08;;;;;;;26.75;12.75;;;2.40;84.70;;;;;;5057473;28;20081;-67
2021/12/19 11:55:40;;;;;;;24.60;12.63;;;2.40;84.70;;;;;;5057813;28;20103;-67
2021/12/19 11:58:08;;;;;;;23.98;12.45;;;2.40;84.70;;;;;;5055941;28;20032;-67
2021/12/19 12:01:04;;;;;;;21.80;11.85;;;2.40;84.50;;;;;;5055320;28;20037;-67
2021/12/19 12:03:42;;;;;;;25.17;12.73;;;2.50;84.40;;;;;;5057133;28;20499;-67
2021/12/19 12:06:15;;;;;;;24.40;13.05;;;2.50;84.40;;;;;;5055216;28;20031;-67
2021/12/19 12:09:04;;;;;;;25.15;12.90;;;2.50;84.40;;;;;;5052317;28;20384;-67
2021/12/19 12:11:31;;;;;;;24.10;12.23;;;2.50;84.30;;;;;;5070892;28;20028;-67
2021/12/19 12:14:22;;;;;;;24.52;12.80;;;2.50;84.40;;;;;;5057951;28;20035;-67
2021/12/19 12:17:12;;;;;;;28.10;13.90;;;2.50;84.40;;;;;;5057354;28;20040;-68
2021/12/19 12:19:51;;;;;;;27.08;13.75;;;2.50;84.40;;;;;;5057793;28;20072;-67
2021/12/19 12:22:25;;;;;;;24.73;12.88;;;2.50;84.60;;;;;;5056523;28;20028;-68
2021/12/19 12:25:06;;;;;;;24.83;13.40;;;2.50;84.60;;;;;;5057769;28;20032;-67
2021/12/19 12:27:54;;;;;;;25.58;13.88;;;2.60;84.70;;;;;;5056938;28;20028;-67
2021/12/19 12:30:29;;;;;;;27.77;15.10;;;2.60;84.70;;;;;;5057710;28;20075;-67
2021/12/19 12:32:58;;;;;;;23.80;12.40;;;2.60;84.80;;;;;;5056134;28;20033;-67
2021/12/19 12:35:25;;;;;;;25.90;12.00;;;2.60;84.70;;;;;;5055324;28;20048;-67
2021/12/19 12:37:51;;;;;;;24.33;12.32;;;2.60;84.70;;;;;;5057986;28;20063;-67
2021/12/19 12:40:31;;;;;;;23.88;12.82;;;2.60;84.80;;;;;;5057258;28;20028;-67
2021/12/19 12:43:09;;;;;;;24.70;11.82;;;2.70;84.90;;;;;;5056532;28;20040;-66
2021/12/19 12:46:06;;;;;;;20.95;12.00;;;2.70;84.90;;;;;;5057502;28;20025;-67
2021/12/19 12:48:31;;;;;;;23.52;12.23;;;2.70;84.80;;;;;;5056750;28;20036;-67
2021/12/19 12:50:59;;;;;;;24.15;12.38;;;2.80;84.90;;;;;;5056744;28;20288;-67
2021/12/19 12:53:30;;;;;;;25.33;12.65;;;2.80;84.80;;;;;;5056936;28;20040;-67
2021/12/19 12:56:01;;;;;;;26.77;13.15;;;2.80;84.90;;;;;;5055828;28;20122;-67
2021/12/19 12:58:27;;;;;;;26.55;12.50;;;2.80;84.80;;;;;;5055743;28;20090;-67
2021/12/19 13:01:21;;;;;;;25.35;12.77;;;2.80;84.90;;;;;;5057642;28;20044;-67
2021/12/19 13:03:55;;;;;;;24.55;12.73;;;2.80;84.90;;;;;;5056771;28;20037;-67
2021/12/19 13:06:39;;;;;;;21.67;12.55;;;2.90;84.80;;;;;;5057971;28;20087;-67
2021/12/19 13:09:27;;;;;;;21.35;12.25;;;2.90;84.60;;;;;;5057093;28;20037;-67
2021/12/19 13:12:11;;;;;;;22.50;11.68;;;2.90;84.40;;;;;;5054037;28;20029;-67
2021/12/19 13:14:47;;;;;;;25.48;12.73;;;2.90;84.40;;;;;;5056879;28;20032;-67
2021/12/19 13:17:15;;;;;;;21.85;11.70;;;2.80;84.40;;;;;;5055889;28;20602;-67
2021/12/19 13:19:56;;;;;;;23.20;12.48;;;2.80;84.40;;;;;;5056146;28;20120;-67
2021/12/19 13:22:29;;;;;;;23.77;12.55;;;2.80;84.60;;;;;;5057670;28;20131;-67
2021/12/19 13:24:59;;;;;;;24.55;12.68;;;2.70;84.60;;;;;;5056091;28;20080;-68
2021/12/19 13:27:31;;;;;;;23.70;12.85;;;2.70;84.90;;;;;;5062525;28;20116;-67
2021/12/19 13:30:00;;;;;;;26.17;14.48;;;2.70;85.10;;;;;;5056883;28;20072;-67
2021/12/19 13:32:26;;;;;;;21.45;11.43;;;2.70;85.30;;;;;;5056860;28;20033;-67
2021/12/19 13:34:52;;;;;;;26.58;14.75;;;2.70;85.30;;;;;;5055366;28;20111;-67
2021/12/19 13:37:19;;;;;;;28.17;15.45;;;2.70;85.30;;;;;;5059484;28;20048;-68
2021/12/19 13:40:08;;;;;;;29.23;16.83;;;2.70;85.40;;;;;;5060041;28;20029;-67
2021/12/19 13:42:37;;;;;;;30.35;16.10;;;2.70;85.40;;;;;;5058813;28;20032;-67
2021/12/19 13:45:23;;;;;;;25.33;12.80;;;2.70;85.30;;;;;;5060372;28;20083;-67
2021/12/19 13:47:49;;;;;;;26.75;14.55;;;2.70;85.40;;;;;;5056898;28;20082;-67
2021/12/19 13:50:15;;;;;;;23.60;12.55;;;2.70;85.30;;;;;;5059204;28;20101;-68
2021/12/19 13:52:41;;;;;;;30.38;15.60;;;2.70;85.40;;;;;;5060097;28;20039;-67
2021/12/19 13:55:09;;;;;;;22.88;12.20;;;2.70;85.50;;;;;;5060423;28;20029;-67
2021/12/19 13:57:36;;;;;;;23.83;12.35;;;2.70;85.60;;;;;;5065508;28;20036;-68
2021/12/19 14:00:05;;;;;;;22.70;12.60;;;2.80;85.70;;;;;;5060586;28;20102;-68
2021/12/19 14:02:39;;;;;;;22.98;12.90;;;2.70;85.50;;;;;;5056680;28;20116;-67